Buckingham, VA (23921)

01:47 AM EST del 28 novembre 2014 (GMT -0500)
KVAGOLDH2 | Change Station
CLOSE
Current Station
Stazione meteo personale
Location: Gold Hill - Buckingham County, VA
Altitudine: 489 ft
Stazioni meteo nelle vicinanze

Alt. 489 ft 37.62 °N, 78.37 °W | Updated 4 minutes ago

Parzialmente nuvoloso
Parzialmente nuvoloso
28.4 °F
Sembra 28 °F
N
0.5
Vento Variabile Vento da Ovest
Gusts 1.1 mph

Oggi
Massima -- | Minima -- °F
--% Possibilità di precip.
Ieri
Massima -- | Minima -- °F
Precip. -- in
7:07 AM 4:56 PM
Luna crescente, 37% visible
Pressione 30.22 in
Visibilità 10.0 miglia
Nuvole Nubi sparse 5000 ft
Raffreddamento del vento 28 °F
Punto di rugiada 22 °F
Umidità 77%
Piovosità 0.00 in
Spessore del manto nevoso Non disponibile.
Raggi UV 0 fuori da 12
Polline .10 fuori da 12
Qualità dell'aria Non disponibile.
Flu Activity Non disponibile.
METAR KFVX 280635Z AUTO 29003KT 10SM SCT050 01/M05 A3022 RMK AO2 T00121048

More Conditions Fewer Conditions

Pressione 30.22 in
Visibilità 10.0 miglia
Nuvole Nubi sparse 5000 ft
Raffreddamento del vento 28 °F
Punto di rugiada 22 °F
Umidità 77%
Piovosità 0.00 in
Spessore del manto nevoso Non disponibile.
Raggi UV 0 fuori da 12
Polline .10 fuori da 12
Qualità dell'aria Non disponibile.
Flu Activity Non disponibile.
METAR KFVX 280635Z AUTO 29003KT 10SM SCT050 01/M05 A3022 RMK AO2 T00121048

More Conditions Fewer Conditions

10-Day Weather Forecast

Almanac

Astronomia

Nov. 28, 2014 Alba Tramonto
Ora attuale
Crepuscolo civile
Crepuscolo nautico
Crepuscolo astronomico
Luna
Estensione della luce visibile
Lunghezza del giorno
Tomorrow will be .
, % of the Moon is Illuminated

Gli estremi di oggi

State Highs State Lows

Community

WunderPhotos

Upload Photos

1,774,194 foto caricate!

WunderBlogs® & News

Nearby

Qualità dell'aria

  Qualità dell'aria Indice AQ Inquinante
Not available.

Profondità neve

Stazione Profondità Altitudine

Attività sismica

Città  Distanza Mag. Data & Ora
Minimo Magnitudo Mostrato è 2.5.

Temperature delle acque costiere

Località Temperatura

Stazioni meteo nelle vicinanze